KVLL

Details ICAO KVLL
Name OAKLAND TROY
Region United States
Timezone America/Detroit (UTC-4.0)
Plans Departing 24
Arriving 6
Stats Elevation 729 ft / 222 m (AMSL)
Location 42.542944° -83.177908°
Runways 1
Magnetic Variation 7.510° W
Sunrise 2018-05-21 10:06:36 UTC / 2018-05-21 06:06:36 Local
Sunset 2018-05-22 00:54:54 UTC / 2018-05-21 20:54:54 Local
Advertisement - Login to hide

Runways

ID Width Length Bearing (true) Bearing (mag) Surface Threshold Offset Overrun Length
09 60 ft / 18 m 3,541 ft / 1,079 m 89.70° 97.21° Asphalt 0 ft / 0 m 250 ft / 76 m
27 60 ft / 18 m 3,541 ft / 1,079 m 269.70° 277.21° Asphalt 0 ft / 0 m 0 ft / 0 m

Map

Weather


0- 5 10 15 20 25 30 35+ Temperature / ° C

Clouds and Precipitation
Forecast for 2018-05-22 00:00 UTC. Updated 2 hours ago

Ground ~20,000 ft ~40,000 ft Winds

METAR

KVLL 220055Z AUTO 07003KT 10SM -DZ BKN028 OVC035 13/11 A3010 RMK AO2 T01320105

TAF

Not found

Frequencies

Recorded 119.47 MHz AWOS 3
Approach 126.85 MHz DETROIT APP/DEP
Unicom 123.05 MHz CTAF/UNICOM
Warning: Do not use this data for real-world aviation or navigation. No guarantee of current accuracy is given.